sensor_id;sensor_type;location;lat;lon;timestamp;pressure;altitude;pressure_sealevel;temperature;humidity
6565;BME280;3316;44.118;27.258;2023-08-06T00:01:12;99791.16;;;24.64;100.00
6565;BME280;3316;44.118;27.258;2023-08-06T00:03:37;99830.91;;;24.83;100.00
6565;BME280;3316;44.118;27.258;2023-08-06T00:06:05;99820.13;;;24.83;100.00
6565;BME280;3316;44.118;27.258;2023-08-06T00:08:31;99831.03;;;24.82;100.00
6565;BME280;3316;44.118;27.258;2023-08-06T00:10:56;99833.72;;;24.82;100.00
6565;BME280;3316;44.118;27.258;2023-08-06T00:13:22;99821.38;;;24.79;100.00
6565;BME280;3316;44.118;27.258;2023-08-06T00:15:47;99814.53;;;24.86;100.00
6565;BME280;3316;44.118;27.258;2023-08-06T00:18:12;99787.13;;;24.81;100.00
6565;BME280;3316;44.118;27.258;2023-08-06T00:20:39;99804.94;;;24.93;100.00
6565;BME280;3316;44.118;27.258;2023-08-06T00:23:05;99809.88;;;24.88;100.00
6565;BME280;3316;44.118;27.258;2023-08-06T00:25:31;99767.97;;;24.75;100.00
6565;BME280;3316;44.118;27.258;2023-08-06T00:27:56;99770.25;;;24.79;100.00
6565;BME280;3316;44.118;27.258;2023-08-06T00:30:22;99775.38;;;24.82;100.00
6565;BME280;3316;44.118;27.258;2023-08-06T00:32:47;99773.56;;;24.83;100.00
6565;BME280;3316;44.118;27.258;2023-08-06T00:35:12;99780.78;;;24.82;100.00
6565;BME280;3316;44.118;27.258;2023-08-06T00:37:39;99761.94;;;24.71;100.00
6565;BME280;3316;44.118;27.258;2023-08-06T00:40:05;99772.06;;;24.67;100.00
6565;BME280;3316;44.118;27.258;2023-08-06T00:42:31;99777.44;;;24.67;100.00
6565;BME280;3316;44.118;27.258;2023-08-06T00:44:56;99748.25;;;24.52;100.00
6565;BME280;3316;44.118;27.258;2023-08-06T00:47:22;99759.75;;;24.54;100.00
6565;BME280;3316;44.118;27.258;2023-08-06T00:49:48;99764.41;;;24.63;100.00
6565;BME280;3316;44.118;27.258;2023-08-06T00:52:14;99755.59;;;24.61;100.00
6565;BME280;3316;44.118;27.258;2023-08-06T00:54:39;99741.03;;;24.63;100.00
6565;BME280;3316;44.118;27.258;2023-08-06T00:57:07;99746.22;;;24.55;100.00
6565;BME280;3316;44.118;27.258;2023-08-06T00:59:33;99733.00;;;24.52;100.00
6565;BME280;3316;44.118;27.258;2023-08-06T01:02:01;99735.69;;;24.52;100.00
6565;BME280;3316;44.118;27.258;2023-08-06T01:04:26;99711.00;;;24.36;100.00
6565;BME280;3316;44.118;27.258;2023-08-06T01:15:00;99683.91;;;24.17;100.00
6565;BME280;3316;44.118;27.258;2023-08-06T01:17:29;99709.41;;;24.45;100.00
6565;BME280;3316;44.118;27.258;2023-08-06T01:19:55;99715.78;;;24.44;100.00
6565;BME280;3316;44.118;27.258;2023-08-06T01:22:20;99706.88;;;24.43;100.00
6565;BME280;3316;44.118;27.258;2023-08-06T01:24:49;99700.63;;;24.43;100.00
6565;BME280;3316;44.118;27.258;2023-08-06T01:27:30;99716.63;;;24.44;100.00
6565;BME280;3316;44.118;27.258;2023-08-06T01:32:39;99717.63;;;24.32;100.00
6565;BME280;3316;44.118;27.258;2023-08-06T01:35:07;99715.31;;;24.28;100.00
6565;BME280;3316;44.118;27.258;2023-08-06T01:37:35;99731.91;;;24.33;100.00
6565;BME280;3316;44.118;27.258;2023-08-06T01:40:06;99725.09;;;24.29;100.00
6565;BME280;3316;44.118;27.258;2023-08-06T01:42:32;99690.03;;;24.19;100.00
6565;BME280;3316;44.118;27.258;2023-08-06T01:44:57;99734.97;;;24.39;100.00
6565;BME280;3316;44.118;27.258;2023-08-06T01:47:23;99735.69;;;24.52;100.00
6565;BME280;3316;44.118;27.258;2023-08-06T01:49:48;99717.84;;;24.51;100.00
6565;BME280;3316;44.118;27.258;2023-08-06T01:52:13;99728.69;;;24.61;100.00
6565;BME280;3316;44.118;27.258;2023-08-06T01:54:39;99719.41;;;24.54;100.00
6565;BME280;3316;44.118;27.258;2023-08-06T01:57:05;99729.16;;;24.66;100.00
6565;BME280;3316;44.118;27.258;2023-08-06T01:59:30;99708.41;;;24.57;100.00
6565;BME280;3316;44.118;27.258;2023-08-06T02:01:55;99713.78;;;24.57;100.00
6565;BME280;3316;44.118;27.258;2023-08-06T02:04:21;99724.28;;;24.60;100.00
6565;BME280;3316;44.118;27.258;2023-08-06T02:06:46;99677.28;;;24.32;100.00
6565;BME280;3316;44.118;27.258;2023-08-06T02:09:12;99711.25;;;24.55;100.00
6565;BME280;3316;44.118;27.258;2023-08-06T02:11:37;99718.19;;;24.58;100.00
6565;BME280;3316;44.118;27.258;2023-08-06T02:14:03;99727.16;;;24.47;100.00
6565;BME280;3316;44.118;27.258;2023-08-06T02:16:28;99728.84;;;24.48;100.00
6565;BME280;3316;44.118;27.258;2023-08-06T02:18:53;99729.25;;;24.44;100.00
6565;BME280;3316;44.118;27.258;2023-08-06T02:21:19;99681.59;;;24.24;100.00
6565;BME280;3316;44.118;27.258;2023-08-06T02:23:44;99727.63;;;24.52;100.00
6565;BME280;3316;44.118;27.258;2023-08-06T02:26:10;99707.59;;;24.45;100.00
6565;BME280;3316;44.118;27.258;2023-08-06T02:28:35;99713.34;;;24.41;100.00
6565;BME280;3316;44.118;27.258;2023-08-06T02:31:01;99722.75;;;24.35;100.00
6565;BME280;3316;44.118;27.258;2023-08-06T02:33:26;99718.84;;;24.39;100.00
6565;BME280;3316;44.118;27.258;2023-08-06T02:35:58;99720.06;;;24.35;100.00
6565;BME280;3316;44.118;27.258;2023-08-06T02:38:25;99698.31;;;24.27;100.00
6565;BME280;3316;44.118;27.258;2023-08-06T02:40:50;99710.44;;;24.22;100.00
6565;BME280;3316;44.118;27.258;2023-08-06T02:43:16;99716.53;;;24.24;100.00
6565;BME280;3316;44.118;27.258;2023-08-06T02:45:41;99713.47;;;24.17;100.00
6565;BME280;3316;44.118;27.258;2023-08-06T02:48:06;99710.94;;;24.16;100.00
6565;BME280;3316;44.118;27.258;2023-08-06T02:50:40;99726.56;;;24.22;100.00
6565;BME280;3316;44.118;27.258;2023-08-06T02:53:06;99742.69;;;24.22;100.00
6565;BME280;3316;44.118;27.258;2023-08-06T02:55:33;99741.34;;;24.16;100.00
6565;BME280;3316;44.118;27.258;2023-08-06T02:57:59;99718.00;;;24.06;100.00
6565;BME280;3316;44.118;27.258;2023-08-06T03:00:25;99698.59;;;23.91;100.00
6565;BME280;3316;44.118;27.258;2023-08-06T03:02:50;99711.53;;;23.97;100.00
6565;BME280;3316;44.118;27.258;2023-08-06T03:05:16;99717.59;;;23.99;100.00
6565;BME280;3316;44.118;27.258;2023-08-06T03:07:41;99716.31;;;24.05;100.00
6565;BME280;3316;44.118;27.258;2023-08-06T03:10:07;99723.97;;;23.98;100.00
6565;BME280;3316;44.118;27.258;2023-08-06T03:12:32;99727.88;;;23.94;100.00
6565;BME280;3316;44.118;27.258;2023-08-06T03:14:58;99721.53;;;23.95;100.00
6565;BME280;3316;44.118;27.258;2023-08-06T03:17:23;99724.84;;;24.10;100.00
6565;BME280;3316;44.118;27.258;2023-08-06T03:19:49;99715.69;;;24.12;100.00
6565;BME280;3316;44.118;27.258;2023-08-06T03:22:14;99659.25;;;23.79;100.00
6565;BME280;3316;44.118;27.258;2023-08-06T03:24:40;99715.81;;;24.22;100.00
6565;BME280;3316;44.118;27.258;2023-08-06T03:27:05;99733.63;;;24.23;100.00
6565;BME280;3316;44.118;27.258;2023-08-06T03:29:31;99736.09;;;24.26;100.00
6565;BME280;3316;44.118;27.258;2023-08-06T03:31:56;99726.78;;;24.41;100.00
6565;BME280;3316;44.118;27.258;2023-08-06T03:34:21;99737.38;;;24.64;100.00
6565;BME280;3316;44.118;27.258;2023-08-06T03:36:47;99739.78;;;24.90;100.00
6565;BME280;3316;44.118;27.258;2023-08-06T03:39:12;99739.47;;;25.04;100.00
6565;BME280;3316;44.118;27.258;2023-08-06T03:41:39;99740.28;;;25.15;100.00
6565;BME280;3316;44.118;27.258;2023-08-06T03:44:05;99753.75;;;25.36;100.00
6565;BME280;3316;44.118;27.258;2023-08-06T03:46:30;99745.53;;;25.48;100.00
6565;BME280;3316;44.118;27.258;2023-08-06T03:48:59;99740.25;;;25.68;100.00
6565;BME280;3316;44.118;27.258;2023-08-06T03:51:25;99747.47;;;25.88;100.00
6565;BME280;3316;44.118;27.258;2023-08-06T03:53:50;99705.25;;;25.68;100.00
6565;BME280;3316;44.118;27.258;2023-08-06T03:56:16;99727.78;;;25.97;100.00
6565;BME280;3316;44.118;27.258;2023-08-06T03:58:41;99739.38;;;26.08;100.00
6565;BME280;3316;44.118;27.258;2023-08-06T04:01:06;99734.47;;;26.23;100.00
6565;BME280;3316;44.118;27.258;2023-08-06T04:03:32;99727.66;;;26.19;100.00
6565;BME280;3316;44.118;27.258;2023-08-06T04:05:57;99691.34;;;26.02;100.00
6565;BME280;3316;44.118;27.258;2023-08-06T04:08:23;99731.16;;;26.50;100.00
6565;BME280;3316;44.118;27.258;2023-08-06T04:10:52;99736.94;;;26.94;100.00
6565;BME280;3316;44.118;27.258;2023-08-06T04:13:18;99733.66;;;27.29;100.00
6565;BME280;3316;44.118;27.258;2023-08-06T04:15:44;99722.56;;;27.61;100.00
6565;BME280;3316;44.118;27.258;2023-08-06T04:18:09;99708.69;;;27.92;100.00
6565;BME280;3316;44.118;27.258;2023-08-06T04:20:34;99726.91;;;27.90;100.00
6565;BME280;3316;44.118;27.258;2023-08-06T04:23:06;99734.47;;;27.87;100.00
6565;BME280;3316;44.118;27.258;2023-08-06T04:25:31;99726.19;;;27.98;100.00
6565;BME280;3316;44.118;27.258;2023-08-06T04:27:57;99720.44;;;28.20;100.00
6565;BME280;3316;44.118;27.258;2023-08-06T04:30:22;99686.66;;;27.97;100.00
6565;BME280;3316;44.118;27.258;2023-08-06T04:32:50;99697.25;;;28.08;100.00
6565;BME280;3316;44.118;27.258;2023-08-06T04:35:15;99712.84;;;27.96;100.00
6565;BME280;3316;44.118;27.258;2023-08-06T04:37:41;99709.22;;;27.59;100.00
6565;BME280;3316;44.118;27.258;2023-08-06T04:40:07;99707.50;;;27.49;100.00
6565;BME280;3316;44.118;27.258;2023-08-06T04:42:32;99704.38;;;27.53;100.00
6565;BME280;3316;44.118;27.258;2023-08-06T04:44:58;99704.81;;;27.49;100.00
6565;BME280;3316;44.118;27.258;2023-08-06T04:47:23;99703.00;;;27.40;100.00
6565;BME280;3316;44.118;27.258;2023-08-06T04:49:51;99692.34;;;27.84;100.00
6565;BME280;3316;44.118;27.258;2023-08-06T04:52:16;99682.44;;;28.12;100.00
6565;BME280;3316;44.118;27.258;2023-08-06T04:54:43;99684.03;;;27.59;100.00
6565;BME280;3316;44.118;27.258;2023-08-06T04:57:09;99687.69;;;27.77;100.00
6565;BME280;3316;44.118;27.258;2023-08-06T04:59:34;99682.03;;;28.07;100.00
6565;BME280;3316;44.118;27.258;2023-08-06T05:02:00;99691.06;;;28.25;100.00
6565;BME280;3316;44.118;27.258;2023-08-06T05:04:25;99616.22;;;27.89;100.00
6565;BME280;3316;44.118;27.258;2023-08-06T05:06:50;99676.94;;;28.58;100.00
6565;BME280;3316;44.118;27.258;2023-08-06T05:09:16;99653.59;;;28.75;100.00
6565;BME280;3316;44.118;27.258;2023-08-06T05:11:41;99690.56;;;28.84;100.00
6565;BME280;3316;44.118;27.258;2023-08-06T05:14:07;99692.09;;;28.69;100.00
6565;BME280;3316;44.118;27.258;2023-08-06T05:16:32;99694.25;;;28.65;100.00
6565;BME280;3316;44.118;27.258;2023-08-06T05:18:57;99695.97;;;28.39;100.00
6565;BME280;3316;44.118;27.258;2023-08-06T05:21:23;99692.47;;;28.56;100.00
6565;BME280;3316;44.118;27.258;2023-08-06T05:23:48;99698.00;;;28.99;100.00
6565;BME280;3316;44.118;27.258;2023-08-06T05:26:14;99692.00;;;29.49;100.00
6565;BME280;3316;44.118;27.258;2023-08-06T05:28:43;99687.31;;;30.10;100.00
6565;BME280;3316;44.118;27.258;2023-08-06T05:31:09;99689.06;;;30.69;100.00
6565;BME280;3316;44.118;27.258;2023-08-06T05:33:34;99667.53;;;30.76;100.00
6565;BME280;3316;44.118;27.258;2023-08-06T05:36:00;99685.47;;;30.60;100.00
6565;BME280;3316;44.118;27.258;2023-08-06T05:38:25;99666.69;;;30.25;100.00
6565;BME280;3316;44.118;27.258;2023-08-06T05:40:50;99680.97;;;29.94;100.00
6565;BME280;3316;44.118;27.258;2023-08-06T05:43:16;99686.25;;;30.29;100.00
6565;BME280;3316;44.118;27.258;2023-08-06T05:45:45;99677.34;;;29.85;100.00
6565;BME280;3316;44.118;27.258;2023-08-06T05:48:12;99683.59;;;29.60;100.00
6565;BME280;3316;44.118;27.258;2023-08-06T05:50:37;99682.50;;;29.45;100.00
6565;BME280;3316;44.118;27.258;2023-08-06T05:53:03;99666.66;;;28.79;100.00
6565;BME280;3316;44.118;27.258;2023-08-06T05:55:28;99676.84;;;29.38;100.00
6565;BME280;3316;44.118;27.258;2023-08-06T05:57:54;99682.25;;;30.15;100.00
6565;BME280;3316;44.118;27.258;2023-08-06T06:00:20;99679.22;;;30.60;100.00
6565;BME280;3316;44.118;27.258;2023-08-06T06:02:46;99680.09;;;29.93;100.00
6565;BME280;3316;44.118;27.258;2023-08-06T06:05:12;99673.22;;;29.30;100.00
6565;BME280;3316;44.118;27.258;2023-08-06T06:07:37;99664.97;;;29.14;100.00
6565;BME280;3316;44.118;27.258;2023-08-06T06:10:03;99658.31;;;28.73;100.00
6565;BME280;3316;44.118;27.258;2023-08-06T06:12:28;99673.69;;;28.90;100.00
6565;BME280;3316;44.118;27.258;2023-08-06T06:14:54;99624.41;;;28.51;100.00
6565;BME280;3316;44.118;27.258;2023-08-06T06:17:19;99639.66;;;28.70;100.00
6565;BME280;3316;44.118;27.258;2023-08-06T06:19:44;99648.88;;;28.77;100.00
6565;BME280;3316;44.118;27.258;2023-08-06T06:22:10;99663.72;;;29.51;100.00
6565;BME280;3316;44.118;27.258;2023-08-06T06:24:35;99673.81;;;29.67;100.00
6565;BME280;3316;44.118;27.258;2023-08-06T06:27:01;99661.06;;;29.59;100.00
6565;BME280;3316;44.118;27.258;2023-08-06T06:29:26;99644.91;;;29.50;100.00
6565;BME280;3316;44.118;27.258;2023-08-06T06:31:51;99666.84;;;30.24;100.00
6565;BME280;3316;44.118;27.258;2023-08-06T06:34:17;99672.91;;;30.18;100.00
6565;BME280;3316;44.118;27.258;2023-08-06T06:36:42;99665.28;;;30.63;100.00
6565;BME280;3316;44.118;27.258;2023-08-06T06:39:08;99670.78;;;30.79;100.00
6565;BME280;3316;44.118;27.258;2023-08-06T06:41:33;99672.00;;;31.01;100.00
6565;BME280;3316;44.118;27.258;2023-08-06T06:43:59;99671.53;;;31.37;100.00
6565;BME280;3316;44.118;27.258;2023-08-06T06:46:24;99673.69;;;31.58;100.00
6565;BME280;3316;44.118;27.258;2023-08-06T06:48:50;99664.63;;;31.90;100.00
6565;BME280;3316;44.118;27.258;2023-08-06T06:51:15;99673.34;;;32.32;100.00
6565;BME280;3316;44.118;27.258;2023-08-06T06:53:40;99662.31;;;32.25;100.00
6565;BME280;3316;44.118;27.258;2023-08-06T06:56:06;99638.50;;;32.19;100.00
6565;BME280;3316;44.118;27.258;2023-08-06T06:58:32;99655.09;;;32.71;100.00
6565;BME280;3316;44.118;27.258;2023-08-06T07:00:58;99661.38;;;32.49;100.00
6565;BME280;3316;44.118;27.258;2023-08-06T07:03:23;99662.75;;;32.06;100.00
6565;BME280;3316;44.118;27.258;2023-08-06T07:05:49;99673.19;;;32.25;100.00
6565;BME280;3316;44.118;27.258;2023-08-06T07:08:15;99651.19;;;32.04;100.00
6565;BME280;3316;44.118;27.258;2023-08-06T07:10:41;99658.59;;;32.18;100.00
6565;BME280;3316;44.118;27.258;2023-08-06T07:13:07;99666.72;;;32.88;100.00
6565;BME280;3316;44.118;27.258;2023-08-06T07:15:33;99649.44;;;32.81;100.00
6565;BME280;3316;44.118;27.258;2023-08-06T07:17:58;99663.88;;;32.81;100.00
6565;BME280;3316;44.118;27.258;2023-08-06T07:20:24;99670.75;;;32.69;100.00
6565;BME280;3316;44.118;27.258;2023-08-06T07:22:49;99667.94;;;32.63;100.00
6565;BME280;3316;44.118;27.258;2023-08-06T07:25:16;99665.94;;;32.79;100.00
6565;BME280;3316;44.118;27.258;2023-08-06T07:27:42;99659.09;;;32.83;100.00
6565;BME280;3316;44.118;27.258;2023-08-06T07:30:07;99657.50;;;33.19;98.85
6565;BME280;3316;44.118;27.258;2023-08-06T07:32:33;99630.97;;;33.13;99.61
6565;BME280;3316;44.118;27.258;2023-08-06T07:34:59;99658.44;;;33.64;99.38
6565;BME280;3316;44.118;27.258;2023-08-06T07:37:26;99651.50;;;33.90;97.51
6565;BME280;3316;44.118;27.258;2023-08-06T07:39:58;99646.94;;;34.05;96.15
6565;BME280;3316;44.118;27.258;2023-08-06T07:42:23;99618.53;;;34.36;93.77
6565;BME280;3316;44.118;27.258;2023-08-06T07:44:56;99628.75;;;34.13;96.72
6565;BME280;3316;44.118;27.258;2023-08-06T07:47:22;99641.44;;;34.20;95.19
6565;BME280;3316;44.118;27.258;2023-08-06T07:49:47;99651.38;;;34.57;94.00
6565;BME280;3316;44.118;27.258;2023-08-06T07:52:13;99639.41;;;34.43;92.57
6565;BME280;3316;44.118;27.258;2023-08-06T07:54:38;99623.06;;;34.29;92.16
6565;BME280;3316;44.118;27.258;2023-08-06T07:57:04;99569.44;;;33.77;91.57
6565;BME280;3316;44.118;27.258;2023-08-06T07:59:30;99649.66;;;34.05;93.57
6565;BME280;3316;44.118;27.258;2023-08-06T08:01:55;99640.47;;;34.28;90.81
6565;BME280;3316;44.118;27.258;2023-08-06T08:04:21;99645.50;;;34.09;89.96
6565;BME280;3316;44.118;27.258;2023-08-06T08:06:47;99635.78;;;33.63;92.75
6565;BME280;3316;44.118;27.258;2023-08-06T08:09:12;99646.72;;;33.03;95.58
6565;BME280;3316;44.118;27.258;2023-08-06T08:11:39;99648.13;;;32.91;97.42
6565;BME280;3316;44.118;27.258;2023-08-06T08:14:04;99640.47;;;33.17;95.36
6565;BME280;3316;44.118;27.258;2023-08-06T08:16:30;99645.84;;;33.03;96.02
6565;BME280;3316;44.118;27.258;2023-08-06T08:18:55;99656.28;;;33.59;96.54
6565;BME280;3316;44.118;27.258;2023-08-06T08:21:20;99624.66;;;33.65;95.32
6565;BME280;3316;44.118;27.258;2023-08-06T08:23:46;99648.69;;;33.98;94.51
6565;BME280;3316;44.118;27.258;2023-08-06T08:26:11;99646.63;;;33.86;94.14
6565;BME280;3316;44.118;27.258;2023-08-06T08:28:37;99634.38;;;33.67;94.54
6565;BME280;3316;44.118;27.258;2023-08-06T08:31:02;99635.75;;;34.36;93.02
6565;BME280;3316;44.118;27.258;2023-08-06T08:33:28;99642.94;;;35.15;89.91
6565;BME280;3316;44.118;27.258;2023-08-06T08:35:53;99653.25;;;35.62;84.16
6565;BME280;3316;44.118;27.258;2023-08-06T08:38:18;99633.13;;;35.69;82.40
6565;BME280;3316;44.118;27.258;2023-08-06T08:40:50;99638.09;;;35.11;86.29
6565;BME280;3316;44.118;27.258;2023-08-06T08:43:17;99639.06;;;35.24;86.06
6565;BME280;3316;44.118;27.258;2023-08-06T08:45:46;99644.50;;;35.45;83.50
6565;BME280;3316;44.118;27.258;2023-08-06T08:48:15;99640.19;;;35.57;83.81
6565;BME280;3316;44.118;27.258;2023-08-06T08:50:44;99638.63;;;35.27;84.66
6565;BME280;3316;44.118;27.258;2023-08-06T08:53:11;99626.31;;;35.10;86.15
6565;BME280;3316;44.118;27.258;2023-08-06T08:55:38;99641.50;;;34.77;87.32
6565;BME280;3316;44.118;27.258;2023-08-06T08:58:04;99617.63;;;35.28;86.02
6565;BME280;3316;44.118;27.258;2023-08-06T09:00:30;99620.09;;;35.78;82.72
6565;BME280;3316;44.118;27.258;2023-08-06T09:02:56;99620.19;;;35.08;86.41
6565;BME280;3316;44.118;27.258;2023-08-06T09:05:25;99620.34;;;35.49;85.31
6565;BME280;3316;44.118;27.258;2023-08-06T09:07:55;99609.03;;;36.33;80.41
6565;BME280;3316;44.118;27.258;2023-08-06T09:10:23;99585.72;;;36.63;76.09
6565;BME280;3316;44.118;27.258;2023-08-06T09:12:51;99606.63;;;36.71;75.90
6565;BME280;3316;44.118;27.258;2023-08-06T09:15:18;99613.25;;;36.36;76.54
6565;BME280;3316;44.118;27.258;2023-08-06T09:17:43;99603.44;;;36.54;76.60
6565;BME280;3316;44.118;27.258;2023-08-06T09:20:12;99603.69;;;36.79;75.22
6565;BME280;3316;44.118;27.258;2023-08-06T09:22:38;99604.75;;;36.78;74.21
6565;BME280;3316;44.118;27.258;2023-08-06T09:25:05;99603.31;;;36.95;73.59
6565;BME280;3316;44.118;27.258;2023-08-06T09:27:37;99601.63;;;37.53;69.52
6565;BME280;3316;44.118;27.258;2023-08-06T09:30:04;99607.34;;;37.65;68.25
6565;BME280;3316;44.118;27.258;2023-08-06T09:32:46;99597.81;;;37.80;68.53
6565;BME280;3316;44.118;27.258;2023-08-06T09:35:16;99603.44;;;37.98;67.22
6565;BME280;3316;44.118;27.258;2023-08-06T09:37:42;99600.69;;;38.05;66.50
6565;BME280;3316;44.118;27.258;2023-08-06T09:40:26;99600.13;;;37.77;68.09
6565;BME280;3316;44.118;27.258;2023-08-06T09:42:53;99597.81;;;37.28;68.98
6565;BME280;3316;44.118;27.258;2023-08-06T09:45:18;99584.31;;;36.87;73.13
6565;BME280;3316;44.118;27.258;2023-08-06T09:47:44;99594.31;;;36.41;76.89
6565;BME280;3316;44.118;27.258;2023-08-06T09:50:19;99590.34;;;36.50;77.24
6565;BME280;3316;44.118;27.258;2023-08-06T09:52:45;99577.31;;;36.65;75.83
6565;BME280;3316;44.118;27.258;2023-08-06T09:55:12;99588.78;;;37.08;72.01
6565;BME280;3316;44.118;27.258;2023-08-06T09:57:38;99564.66;;;36.77;77.67
6565;BME280;3316;44.118;27.258;2023-08-06T10:00:04;99549.66;;;36.53;78.86
6565;BME280;3316;44.118;27.258;2023-08-06T10:02:32;99579.00;;;36.79;76.64
6565;BME280;3316;44.118;27.258;2023-08-06T10:04:59;99570.59;;;36.81;75.91
6565;BME280;3316;44.118;27.258;2023-08-06T10:07:25;99564.00;;;36.55;77.08
6565;BME280;3316;44.118;27.258;2023-08-06T10:09:50;99532.63;;;35.98;78.03
6565;BME280;3316;44.118;27.258;2023-08-06T10:12:17;99569.81;;;36.33;81.26
6565;BME280;3316;44.118;27.258;2023-08-06T10:14:46;99560.28;;;36.16;82.54
6565;BME280;3316;44.118;27.258;2023-08-06T10:17:13;99567.66;;;35.74;86.36
6565;BME280;3316;44.118;27.258;2023-08-06T10:19:38;99566.88;;;35.25;88.41
6565;BME280;3316;44.118;27.258;2023-08-06T10:22:10;99561.84;;;34.59;92.26
6565;BME280;3316;44.118;27.258;2023-08-06T10:27:11;99547.69;;;34.13;94.17
6565;BME280;3316;44.118;27.258;2023-08-06T10:29:37;99556.25;;;34.10;94.53
6565;BME280;3316;44.118;27.258;2023-08-06T10:32:03;99561.22;;;34.21;94.10
6565;BME280;3316;44.118;27.258;2023-08-06T10:34:58;99559.56;;;34.05;95.92
6565;BME280;3316;44.118;27.258;2023-08-06T10:37:34;99553.53;;;33.95;97.91
6565;BME280;3316;44.118;27.258;2023-08-06T10:40:00;99526.44;;;33.79;97.78
6565;BME280;3316;44.118;27.258;2023-08-06T10:42:29;99544.59;;;33.87;99.35
6565;BME280;3316;44.118;27.258;2023-08-06T10:45:15;99534.03;;;34.13;99.14
6565;BME280;3316;44.118;27.258;2023-08-06T10:47:42;99537.53;;;34.07;98.01
6565;BME280;3316;44.118;27.258;2023-08-06T10:50:11;99527.31;;;34.16;95.55
6565;BME280;3316;44.118;27.258;2023-08-06T10:52:37;99530.13;;;34.58;91.62
6565;BME280;3316;44.118;27.258;2023-08-06T10:55:03;99474.94;;;34.27;91.73
6565;BME280;3316;44.118;27.258;2023-08-06T10:57:28;99529.19;;;34.51;89.50
6565;BME280;3316;44.118;27.258;2023-08-06T10:59:54;99525.94;;;34.41;88.02
6565;BME280;3316;44.118;27.258;2023-08-06T11:02:19;99538.13;;;34.45;87.08
6565;BME280;3316;44.118;27.258;2023-08-06T11:04:45;99536.88;;;34.05;88.86
6565;BME280;3316;44.118;27.258;2023-08-06T11:07:10;99539.34;;;33.71;89.59
6565;BME280;3316;44.118;27.258;2023-08-06T11:09:36;99550.44;;;33.98;88.93
6565;BME280;3316;44.118;27.258;2023-08-06T11:12:02;99526.50;;;34.15;88.58
6565;BME280;3316;44.118;27.258;2023-08-06T11:14:30;99527.84;;;33.75;88.63
6565;BME280;3316;44.118;27.258;2023-08-06T11:16:55;99511.28;;;33.18;94.04
6565;BME280;3316;44.118;27.258;2023-08-06T11:19:22;99500.38;;;32.67;94.87
6565;BME280;3316;44.118;27.258;2023-08-06T11:21:50;99488.56;;;32.06;98.28
6565;BME280;3316;44.118;27.258;2023-08-06T11:24:17;99428.69;;;31.37;98.91
6565;BME280;3316;44.118;27.258;2023-08-06T11:26:42;99510.13;;;31.30;100.00
6565;BME280;3316;44.118;27.258;2023-08-06T11:29:09;99526.16;;;30.93;100.00
6565;BME280;3316;44.118;27.258;2023-08-06T11:31:36;99485.94;;;30.32;100.00
6565;BME280;3316;44.118;27.258;2023-08-06T11:34:01;99495.72;;;30.09;100.00
6565;BME280;3316;44.118;27.258;2023-08-06T11:36:30;99525.38;;;30.11;100.00
6565;BME280;3316;44.118;27.258;2023-08-06T11:38:56;99509.03;;;29.86;100.00
6565;BME280;3316;44.118;27.258;2023-08-06T11:41:22;99449.97;;;29.64;100.00
6565;BME280;3316;44.118;27.258;2023-08-06T11:43:47;99429.03;;;29.33;100.00
6565;BME280;3316;44.118;27.258;2023-08-06T11:46:13;99452.38;;;29.26;100.00
6565;BME280;3316;44.118;27.258;2023-08-06T11:48:55;99458.38;;;29.12;100.00
6565;BME280;3316;44.118;27.258;2023-08-06T11:51:25;99404.16;;;28.52;100.00
6565;BME280;3316;44.118;27.258;2023-08-06T11:53:57;99436.00;;;28.76;100.00
6565;BME280;3316;44.118;27.258;2023-08-06T11:56:24;99461.84;;;28.53;100.00
6565;BME280;3316;44.118;27.258;2023-08-06T11:58:50;99524.47;;;28.40;100.00
6565;BME280;3316;44.118;27.258;2023-08-06T12:01:16;99607.75;;;28.01;100.00
6565;BME280;3316;44.118;27.258;2023-08-06T12:03:41;99758.31;;;25.97;100.00
6565;BME280;3316;44.118;27.258;2023-08-06T12:06:07;99792.91;;;23.53;100.00
6565;BME280;3316;44.118;27.258;2023-08-06T12:08:32;99739.59;;;22.42;100.00
6565;BME280;3316;44.118;27.258;2023-08-06T12:10:58;99597.03;;;22.13;100.00
6565;BME280;3316;44.118;27.258;2023-08-06T12:13:24;99434.47;;;21.66;100.00
6565;BME280;3316;44.118;27.258;2023-08-06T12:15:49;99515.84;;;21.76;100.00
6565;BME280;3316;44.118;27.258;2023-08-06T12:18:18;99479.09;;;21.78;100.00
6565;BME280;3316;44.118;27.258;2023-08-06T12:20:43;99450.69;;;21.88;100.00
6565;BME280;3316;44.118;27.258;2023-08-06T12:23:09;99467.69;;;22.11;100.00
6565;BME280;3316;44.118;27.258;2023-08-06T12:25:35;99480.78;;;22.27;100.00
6565;BME280;3316;44.118;27.258;2023-08-06T12:28:00;99483.34;;;22.39;100.00
6565;BME280;3316;44.118;27.258;2023-08-06T12:30:26;99511.25;;;22.60;100.00
6565;BME280;3316;44.118;27.258;2023-08-06T12:32:51;99539.44;;;22.77;100.00
6565;BME280;3316;44.118;27.258;2023-08-06T12:35:17;99562.13;;;22.84;100.00
6565;BME280;3316;44.118;27.258;2023-08-06T12:37:42;99565.66;;;22.84;100.00
6565;BME280;3316;44.118;27.258;2023-08-06T12:40:09;99595.09;;;23.08;100.00
6565;BME280;3316;44.118;27.258;2023-08-06T12:42:35;99619.06;;;23.33;100.00
6565;BME280;3316;44.118;27.258;2023-08-06T12:45:00;99626.16;;;23.34;100.00
6565;BME280;3316;44.118;27.258;2023-08-06T12:47:26;99642.59;;;23.30;100.00
6565;BME280;3316;44.118;27.258;2023-08-06T12:49:51;99647.84;;;23.31;100.00
6565;BME280;3316;44.118;27.258;2023-08-06T12:52:16;99596.09;;;23.18;100.00
6565;BME280;3316;44.118;27.258;2023-08-06T12:54:45;99592.81;;;23.37;100.00
6565;BME280;3316;44.118;27.258;2023-08-06T12:57:11;99546.78;;;23.19;100.00
6565;BME280;3316;44.118;27.258;2023-08-06T12:59:37;99545.38;;;23.37;100.00
6565;BME280;3316;44.118;27.258;2023-08-06T13:02:03;99541.72;;;23.49;100.00
6565;BME280;3316;44.118;27.258;2023-08-06T13:04:29;99542.69;;;23.48;100.00
6565;BME280;3316;44.118;27.258;2023-08-06T13:06:54;99508.88;;;23.57;100.00
6565;BME280;3316;44.118;27.258;2023-08-06T13:09:20;99512.03;;;23.62;100.00
6565;BME280;3316;44.118;27.258;2023-08-06T13:11:45;99508.13;;;23.55;100.00